createdAt,value
2022-09-20T00:11:46.152Z,68.50
2022-09-20T00:19:19.331Z,85.20
2022-09-20T00:26:45.404Z,69.20
2022-09-20T00:34:29.518Z,68.90
2022-09-20T00:41:55.756Z,69.20
2022-09-20T00:44:43.997Z,87.30
2022-09-20T00:47:17.127Z,69.10
2022-09-20T00:57:11.727Z,69.10
2022-09-20T00:59:42.564Z,69.40
2022-09-20T01:02:15.271Z,69.30
2022-09-20T01:04:44.755Z,73.10
2022-09-20T01:07:16.630Z,69.70
2022-09-20T01:12:17.665Z,69.30
2022-09-20T01:14:47.617Z,69.30
2022-09-20T01:17:17.252Z,69.50
2022-09-20T01:19:53.911Z,88.50
2022-09-20T01:22:26.527Z,69.50
2022-09-20T01:25:04.151Z,69.70
2022-09-20T01:27:44.990Z,85.70
2022-09-20T01:30:18.099Z,86.20
2022-09-20T01:32:56.004Z,69.60
2022-09-20T01:35:26.965Z,69.60
2022-09-20T01:38:07.748Z,69.60
2022-09-20T01:40:44.939Z,69.60
2022-09-20T01:43:22.520Z,69.60
2022-09-20T01:45:51.139Z,85.20
2022-09-20T01:48:28.380Z,86.10
2022-09-20T01:51:28.314Z,69.60
2022-09-20T01:54:27.190Z,69.50
2022-09-20T01:57:11.748Z,69.30
2022-09-20T02:00:12.078Z,69.40
2022-09-20T02:03:20.218Z,85.50
2022-09-20T02:06:08.842Z,69.30
2022-09-20T02:09:01.360Z,69.30
2022-09-20T02:11:35.211Z,69.40
2022-09-20T02:14:08.839Z,69.70
2022-09-20T02:16:56.737Z,85.90
2022-09-20T02:19:54.888Z,85.80
2022-09-20T02:22:32.703Z,69.90
2022-09-20T02:25:12.757Z,88.90
2022-09-20T02:28:00.024Z,69.50
2022-09-20T02:30:41.879Z,69.50
2022-09-20T02:33:29.783Z,75.70
2022-09-20T02:36:12.070Z,69.60
2022-09-20T02:38:53.083Z,88.90
2022-09-20T02:41:55.475Z,86.30
2022-09-20T02:44:55.539Z,69.50
2022-09-20T02:47:33.013Z,69.50
2022-09-20T02:50:14.520Z,69.50
2022-09-20T02:52:50.947Z,69.50
2022-09-20T02:55:25.312Z,69.50
2022-09-20T02:58:01.651Z,84.70
2022-09-20T03:00:39.450Z,69.20
2022-09-20T03:03:17.238Z,69.10
2022-09-20T03:05:58.844Z,69.30
2022-09-20T03:08:36.124Z,69.20
2022-09-20T03:11:13.853Z,69.40
2022-09-20T03:13:58.724Z,69.50
2022-09-20T03:16:35.828Z,69.30
2022-09-20T03:19:17.400Z,69.10
2022-09-20T03:22:01.408Z,82.60
2022-09-20T03:24:40.659Z,69.00
2022-09-20T03:27:15.437Z,69.40
2022-09-20T03:29:56.484Z,69.00
2022-09-20T03:32:37.374Z,68.70
2022-09-20T03:35:20.739Z,68.60
2022-09-20T03:38:03.495Z,68.70
2022-09-20T03:41:15.252Z,68.60
2022-09-20T03:43:57.061Z,84.70
2022-09-20T03:46:28.032Z,85.10
2022-09-20T03:49:37.847Z,68.50
2022-09-20T03:52:19.197Z,68.70
2022-09-20T03:55:31.868Z,68.90
2022-09-20T03:58:30.803Z,68.60
2022-09-20T04:01:15.091Z,68.40
2022-09-20T04:03:54.215Z,68.50
2022-09-20T04:06:54.668Z,83.90
2022-09-20T04:10:02.209Z,85.10
2022-09-20T04:12:41.510Z,68.60
2022-09-20T04:15:23.989Z,68.50
2022-09-20T04:17:59.574Z,68.30
2022-09-20T04:20:35.285Z,68.30
2022-09-20T04:23:13.348Z,68.50
2022-09-20T04:25:45.561Z,68.60
2022-09-20T04:28:20.467Z,68.70
2022-09-20T04:30:52.727Z,68.40
2022-09-20T04:33:25.577Z,83.90
2022-09-20T04:36:30.242Z,68.30
2022-09-20T04:39:09.108Z,68.10
2022-09-20T04:42:10.920Z,68.20
2022-09-20T04:45:19.375Z,68.10
2022-09-20T04:48:38.154Z,68.00
2022-09-20T04:51:58.181Z,68.00
2022-09-20T04:55:10.296Z,83.70
2022-09-20T04:58:19.278Z,68.30
2022-09-20T05:01:11.167Z,68.40
2022-09-20T05:04:22.124Z,68.30
2022-09-20T05:07:36.783Z,70.80
2022-09-20T05:10:36.804Z,68.80
2022-09-20T05:13:19.924Z,68.80
2022-09-20T05:15:58.631Z,68.50
2022-09-20T05:19:09.099Z,84.60
2022-09-20T05:22:06.689Z,68.40
2022-09-20T05:25:02.080Z,82.10
2022-09-20T05:27:42.905Z,68.90
2022-09-20T05:30:33.822Z,68.80
2022-09-20T05:33:13.146Z,68.80
2022-09-20T05:35:48.571Z,68.50
2022-09-20T05:38:33.294Z,68.90
2022-09-20T05:41:19.019Z,87.40
2022-09-20T05:43:56.056Z,86.70
2022-09-20T05:46:42.081Z,84.40
2022-09-20T05:49:36.803Z,68.20
2022-09-20T05:53:06.877Z,68.20
2022-09-20T05:56:04.540Z,68.30
2022-09-20T05:58:55.330Z,68.30
2022-09-20T06:01:29.431Z,68.60
2022-09-20T06:04:10.361Z,68.60
2022-09-20T06:06:52.094Z,68.60
2022-09-20T06:09:44.101Z,68.80
2022-09-20T06:12:36.512Z,85.40
2022-09-20T06:15:19.749Z,68.50
2022-09-20T06:17:57.332Z,68.50
2022-09-20T06:20:30.959Z,68.50
2022-09-20T06:23:01.995Z,68.80
2022-09-20T06:25:41.150Z,68.70
2022-09-20T06:28:16.242Z,68.50
2022-09-20T06:30:48.969Z,68.60
2022-09-20T06:33:18.877Z,69.30
2022-09-20T06:35:54.696Z,69.30
2022-09-20T06:38:56.973Z,69.70
2022-09-20T06:41:30.723Z,69.90
2022-09-20T06:44:01.372Z,88.40
2022-09-20T06:46:32.980Z,69.70
2022-09-20T06:51:35.357Z,68.90
2022-09-20T06:54:05.173Z,68.70
2022-09-20T06:56:36.736Z,69.10
2022-09-20T07:01:39.445Z,87.60
2022-09-20T07:19:02.077Z,69.40
2022-09-20T07:21:33.585Z,69.80
2022-09-20T07:26:56.219Z,69.50
2022-09-20T07:34:25.669Z,69.80
2022-09-20T07:39:51.798Z,69.80
2022-09-20T07:49:49.238Z,69.90
2022-09-20T08:02:15.127Z,70.10
2022-09-20T08:04:43.439Z,85.30
2022-09-20T08:07:13.622Z,68.70
2022-09-20T08:22:25.448Z,70.80
2022-09-20T08:34:50.004Z,85.70
2022-09-20T08:39:58.010Z,66.70
2022-09-20T08:42:38.973Z,66.60
2022-09-20T08:45:37.494Z,66.40
2022-09-20T08:48:08.904Z,66.40
2022-09-20T08:50:37.829Z,66.10
2022-09-20T08:55:39.522Z,66.30
2022-09-20T09:00:38.629Z,66.40
2022-09-20T09:03:11.795Z,76.50
2022-09-20T09:05:45.110Z,81.10
2022-09-20T09:08:16.669Z,81.20
2022-09-20T09:10:53.152Z,65.50
2022-09-20T09:13:26.794Z,65.70
2022-09-20T09:15:58.353Z,64.70
2022-09-20T09:18:33.369Z,64.40
2022-09-20T09:23:41.421Z,64.00
2022-09-20T09:26:21.204Z,64.70
2022-09-20T09:31:26.822Z,79.10
2022-09-20T09:36:25.977Z,62.20
2022-09-20T09:39:16.239Z,62.30
2022-09-20T09:41:48.574Z,62.50
2022-09-20T09:44:23.142Z,62.80
2022-09-20T09:49:21.416Z,62.00
2022-09-20T09:52:12.996Z,80.60
2022-09-20T09:54:47.635Z,61.80
2022-09-20T09:57:33.739Z,77.30
2022-09-20T10:00:20.482Z,81.00
2022-09-20T10:03:08.422Z,62.20
2022-09-20T10:05:44.698Z,62.40
2022-09-20T10:08:24.238Z,62.20
2022-09-20T10:11:03.695Z,62.30
2022-09-20T10:13:42.951Z,61.70
2022-09-20T10:16:22.640Z,61.60
2022-09-20T10:19:00.981Z,61.90
2022-09-20T10:21:43.569Z,77.20
2022-09-20T10:24:31.078Z,60.70
2022-09-20T10:27:13.497Z,60.10
2022-09-20T10:29:57.379Z,58.60
2022-09-20T10:32:45.919Z,75.10
2022-09-20T10:35:23.452Z,61.10
2022-09-20T10:38:16.668Z,79.00
2022-09-20T10:41:36.015Z,59.90
2022-09-20T10:44:13.807Z,72.70
2022-09-20T10:46:53.109Z,54.90
2022-09-20T10:49:35.098Z,70.20
2022-09-20T10:52:29.006Z,70.00
2022-09-20T10:55:09.786Z,70.00
2022-09-20T10:57:58.662Z,53.70
2022-09-20T11:00:42.608Z,51.70
2022-09-20T11:03:28.856Z,50.50
2022-09-20T11:06:08.389Z,49.50
2022-09-20T11:08:38.916Z,50.60
2022-09-20T11:11:12.567Z,53.70
2022-09-20T11:13:45.772Z,50.40
2022-09-20T11:16:17.535Z,47.60
2022-09-20T11:18:53.404Z,46.50
2022-09-20T11:21:28.571Z,48.30
2022-09-20T11:24:04.053Z,46.70
2022-09-20T11:26:37.245Z,63.30
2022-09-20T11:29:14.189Z,48.20
2022-09-20T11:31:46.316Z,47.00
2022-09-20T11:34:22.681Z,48.20
2022-09-20T11:36:58.794Z,48.00
2022-09-20T11:39:32.546Z,47.80
2022-09-20T11:42:01.727Z,46.40
2022-09-20T11:44:31.051Z,46.00
2022-09-20T11:47:03.661Z,44.80
2022-09-20T11:49:52.454Z,61.10
2022-09-20T11:52:54.934Z,58.70
2022-09-20T11:55:36.007Z,43.30
2022-09-20T11:58:08.166Z,43.80
2022-09-20T12:00:38.728Z,43.60
2022-09-20T12:03:13.106Z,44.20
2022-09-20T12:05:43.834Z,44.70
2022-09-20T12:08:23.690Z,62.80
2022-09-20T12:10:58.855Z,43.20
2022-09-20T12:13:27.964Z,44.40
2022-09-20T12:16:05.727Z,44.50
2022-09-20T12:19:02.569Z,46.00
2022-09-20T12:21:32.011Z,43.40
2022-09-20T12:24:22.416Z,50.40
2022-09-20T12:26:57.318Z,43.10
2022-09-20T12:30:03.811Z,42.00
2022-09-20T12:32:53.502Z,53.40
2022-09-20T12:36:02.901Z,54.40
2022-09-20T12:38:37.532Z,38.80
2022-09-20T12:41:23.099Z,49.90
2022-09-20T12:44:00.765Z,49.40
2022-09-20T12:46:43.556Z,37.00
2022-09-20T13:05:36.293Z,55.40
2022-09-20T13:08:14.196Z,35.60
2022-09-20T13:10:49.883Z,35.80
2022-09-20T13:13:37.588Z,51.10
2022-09-20T13:16:08.935Z,49.20
2022-09-20T13:18:38.444Z,35.50
2022-09-20T13:21:09.058Z,48.60
2022-09-20T13:23:47.051Z,34.60
2022-09-20T13:26:19.657Z,37.00
2022-09-20T13:28:52.526Z,49.40
2022-09-20T13:31:31.168Z,48.70
2022-09-20T13:34:25.850Z,35.10
2022-09-20T13:36:58.179Z,52.10
2022-09-20T13:39:37.284Z,37.80
2022-09-20T13:42:19.332Z,52.00
2022-09-20T13:44:48.675Z,36.10
2022-09-20T13:47:28.275Z,37.40
2022-09-20T13:50:02.162Z,37.20
2022-09-20T13:52:31.515Z,38.30
2022-09-20T13:57:31.727Z,37.10
2022-09-20T14:10:07.901Z,50.00
2022-09-20T14:12:38.718Z,35.10
2022-09-20T14:15:11.325Z,50.80
2022-09-20T14:20:15.315Z,50.60
2022-09-20T14:22:45.835Z,35.30
2022-09-20T14:25:25.564Z,35.40
2022-09-20T14:28:19.755Z,34.60
2022-09-20T14:30:48.781Z,35.10
2022-09-20T14:33:19.674Z,34.80
2022-09-20T14:35:49.325Z,36.20
2022-09-20T14:38:19.265Z,52.60
2022-09-20T14:40:48.783Z,51.90
2022-09-20T14:43:31.560Z,48.00
2022-09-20T14:46:02.268Z,36.20
2022-09-20T14:48:40.753Z,37.80
2022-09-20T14:51:22.723Z,38.30
2022-09-20T14:53:53.338Z,38.90
2022-09-20T14:56:34.139Z,55.30
2022-09-20T14:59:20.441Z,39.80
2022-09-20T15:01:58.839Z,40.00
2022-09-20T15:04:28.560Z,39.70
2022-09-20T15:06:57.714Z,39.20
2022-09-20T15:12:13.667Z,39.50
2022-09-20T15:14:43.040Z,54.60
2022-09-20T15:17:15.828Z,54.90
2022-09-20T15:27:09.042Z,54.00
2022-09-20T15:29:37.220Z,54.70
2022-09-20T15:32:06.915Z,39.20
2022-09-20T15:49:31.150Z,41.50
2022-09-20T15:58:10.915Z,59.80
2022-09-20T16:00:40.925Z,43.40
2022-09-20T16:05:38.744Z,43.00
2022-09-20T16:20:51.244Z,44.50
2022-09-20T16:23:25.837Z,44.10
2022-09-20T16:25:54.959Z,59.90
2022-09-20T16:31:00.213Z,43.80
2022-09-20T16:36:08.588Z,61.00
2022-09-20T16:41:06.742Z,61.00
2022-09-20T16:53:31.140Z,44.30
2022-09-20T16:56:01.164Z,44.80
2022-09-20T16:58:30.469Z,44.70
2022-09-20T17:01:05.162Z,44.30
2022-09-20T17:06:05.998Z,44.60
2022-09-20T17:08:40.055Z,44.50
2022-09-20T17:11:13.385Z,44.80
2022-09-20T17:13:42.785Z,45.20
2022-09-20T17:16:13.422Z,45.00
2022-09-20T17:21:14.305Z,45.40
2022-09-20T17:23:50.062Z,62.00
2022-09-20T17:26:27.243Z,45.50
2022-09-20T17:28:58.252Z,61.70
2022-09-20T17:31:40.611Z,45.70
2022-09-20T17:34:11.197Z,45.70
2022-09-20T17:36:41.859Z,46.20
2022-09-20T17:39:21.444Z,47.80
2022-09-20T17:42:02.051Z,46.50
2022-09-20T17:44:46.973Z,46.60
2022-09-20T17:54:45.117Z,63.70
2022-09-20T18:12:06.658Z,48.80
2022-09-20T18:22:04.090Z,50.30
2022-09-20T18:27:00.846Z,67.50
2022-09-20T18:29:36.481Z,50.00
2022-09-20T18:39:33.609Z,49.90
2022-09-20T18:42:08.072Z,51.00
2022-09-20T18:44:40.349Z,49.60
2022-09-20T18:49:37.246Z,49.70
2022-09-20T18:52:13.134Z,49.70
2022-09-20T18:57:11.572Z,67.50
2022-09-20T18:59:53.395Z,50.40
2022-09-20T19:02:46.435Z,67.40
2022-09-20T19:05:26.079Z,51.60
2022-09-20T19:08:13.325Z,51.60
2022-09-20T19:10:48.560Z,51.30
2022-09-20T19:13:30.643Z,51.60
2022-09-20T19:16:12.903Z,51.20
2022-09-20T19:19:13.314Z,51.00
2022-09-20T19:21:48.495Z,51.90
2022-09-20T19:24:31.060Z,69.50
2022-09-20T19:27:02.165Z,53.20
2022-09-20T19:29:30.827Z,73.90
2022-09-20T19:32:04.137Z,71.50
2022-09-20T19:34:33.440Z,54.90
2022-09-20T19:37:18.411Z,54.40
2022-09-20T19:40:04.551Z,55.20
2022-09-20T19:42:47.667Z,55.10
2022-09-20T19:45:28.984Z,54.40
2022-09-20T19:48:05.910Z,54.70
2022-09-20T19:50:39.545Z,54.70
2022-09-20T19:53:08.305Z,54.70
2022-09-20T19:55:38.114Z,59.80
2022-09-20T20:00:35.238Z,74.20
2022-09-20T20:03:05.349Z,57.40
2022-09-20T20:05:34.223Z,74.20
2022-09-20T20:08:15.426Z,57.20
2022-09-20T20:10:52.508Z,74.40
2022-09-20T20:13:43.841Z,57.10
2022-09-20T20:16:15.721Z,57.20
2022-09-20T20:19:06.270Z,73.20
2022-09-20T20:21:45.345Z,57.30
2022-09-20T20:24:24.652Z,73.80
2022-09-20T20:34:20.511Z,57.30
2022-09-20T20:36:49.337Z,73.70
2022-09-20T20:39:17.527Z,73.90
2022-09-20T20:44:20.799Z,74.40
2022-09-20T20:49:23.434Z,74.30
2022-09-20T21:06:46.461Z,74.20
2022-09-20T21:14:13.313Z,57.10
2022-09-20T21:16:43.271Z,56.60
2022-09-20T21:19:14.784Z,56.50
2022-09-20T21:21:44.532Z,56.50
2022-09-20T21:24:17.167Z,74.40
2022-09-20T21:26:48.583Z,56.70
2022-09-20T21:29:19.638Z,56.80
2022-09-20T21:34:19.114Z,56.90
2022-09-20T21:39:16.697Z,57.20
2022-09-20T21:49:13.139Z,57.60
2022-09-20T21:51:45.211Z,57.50
2022-09-20T21:56:42.903Z,57.80
2022-09-20T22:01:41.088Z,57.90
2022-09-20T22:04:10.971Z,58.10
2022-09-20T22:06:40.843Z,58.20
2022-09-20T22:09:12.581Z,74.30
2022-09-20T22:11:44.465Z,79.10
2022-09-20T22:14:14.164Z,76.70
2022-09-20T22:16:44.281Z,58.90
2022-09-20T22:19:14.016Z,58.70
2022-09-20T22:21:43.949Z,58.80
2022-09-20T22:24:13.757Z,76.70
2022-09-20T22:26:44.513Z,59.00
2022-09-20T22:31:45.282Z,59.20
2022-09-20T22:34:16.463Z,59.60
2022-09-20T22:39:13.788Z,60.40
2022-09-20T22:41:44.587Z,60.80
2022-09-20T22:49:10.464Z,61.40
2022-09-20T22:54:08.873Z,62.00
2022-09-20T22:59:09.104Z,61.90
2022-09-20T23:01:41.150Z,61.90
2022-09-20T23:04:11.347Z,80.00
2022-09-20T23:06:43.704Z,61.80
2022-09-20T23:09:13.876Z,61.80
2022-09-20T23:11:43.268Z,61.90
2022-09-20T23:14:14.709Z,62.00
2022-09-20T23:16:42.984Z,80.40
2022-09-20T23:19:12.150Z,62.30
2022-09-20T23:21:41.443Z,62.90
2022-09-20T23:24:11.658Z,62.90
2022-09-20T23:26:40.694Z,81.10
2022-09-20T23:29:27.012Z,81.70
2022-09-20T23:44:20.871Z,63.60
2022-09-20T23:56:42.838Z,84.50
